aviador You're here:

KMCJ Decoded Metar

in _UNIDENTIFIED
Report Time2018-06-23 11:55:00
UTC Time2018-06-23 12:14:42
Flight Rules mvfr MVFR
WindVRB at 05 kt
Visibility9999 m
Phenomena:N/A
Clouds:Scattered 017 Hf
Broken 022 Hf
Expected CloudBase > 800 ft AGL from Temp-Dew spread
Ceiling2,200 ft
Temp26°C (ISA +11)
Dew Point24°C (89% RH)
QNH1012 hPa
Density Alt1,975 ft
Elevation226 ft
Report Wrong Elevation
Raw Report
KMCJ 231155Z AUTO VRB05KT 7SM SCT017 BKN022 26/24 A2987 RMK
A01=

Extra information for KMCJ:More info

Metar Taf Metar & Taf Last 4 Metars F.Rules Stats Wind Profile Meteogram Temp Stats Metar ALERT Operation Metar Decoded Social comments